This is the latest recevied weather packets stored in our database for station/object SP1BMW-13. If no packets are shown the sender has not sent any weather packets the latest 10 day(s).
| Time | Temp. | Humidity | Pressure | Rain* | Wind** | Luminosity | Snow |
|---|---|---|---|---|---|---|---|
| 1788084816 | 24.44° C | 55% | 1008 hPa | 0 mm | 0.45 m/s, 76° | 123 W/m² | - |
| 1788084756 | 24.44° C | 55% | 1008.1 hPa | 0 mm | 0.45 m/s, 135° | 192 W/m² | - |
| 1788084696 | 24.44° C | 54% | 1008 hPa | 0 mm | 0.89 m/s, 114° | 102 W/m² | - |
| 1788084637 | 24.44° C | 54% | 1007.9 hPa | 0 mm | 0.89 m/s, 73° | 68 W/m² | - |
| 1788084577 | 24.44° C | 54% | 1007.8 hPa | 0 mm | 2.24 m/s, 250° | 57 W/m² | - |
| 1788084516 | 25° C | 53% | 1008 hPa | 0 mm | 0.45 m/s, 280° | 56 W/m² | - |
| 1788084459 | 25° C | 55% | 1008 hPa | 0 mm | 0.45 m/s, 0° | 58 W/m² | - |
| 1788084397 | 25° C | 54% | 1008 hPa | 0 mm | 0.45 m/s, 247° | 72 W/m² | - |
| 1788084336 | 25° C | 54% | 1007.9 hPa | 0 mm | 0.89 m/s, 236° | 97 W/m² | - |
| 1788084276 | 25° C | 52% | 1007.6 hPa | 0 mm | 1.79 m/s, 133° | 129 W/m² | - |
| 1788084219 | 25° C | 53% | 1007.9 hPa | 0 mm | 1.34 m/s, 291° | 156 W/m² | - |
| 1788084157 | 25° C | 52% | 1008 hPa | 0 mm | 0.89 m/s, 252° | 187 W/m² | - |
| 1788084097 | 25° C | 52% | 1008 hPa | 0 mm | 1.34 m/s, 187° | 373 W/m² | - |
| 1788084037 | 25° C | 52% | 1007.9 hPa | 0 mm | 2.68 m/s, 289° | 708 W/m² | - |
| 1788083977 | 25.56° C | 52% | 1007.9 hPa | 0 mm | 4.02 m/s, 235° | 261 W/m² | - |
| 1788083918 | 25.56° C | 55% | 1008.1 hPa | 0 mm | 0.89 m/s, 181° | 250 W/m² | - |
| 1788083857 | 25.56° C | 53% | 1007.9 hPa | 0 mm | 0.89 m/s, 261° | 230 W/m² | - |
| 1788083797 | 25.56° C | 53% | 1007.8 hPa | 0 mm | 0.89 m/s, 252° | 257 W/m² | - |
| 1788083740 | 25.56° C | 54% | 1007.9 hPa | 0 mm | 0 m/s | 337 W/m² | - |
| 1788083677 | 25.56° C | 53% | 1008 hPa | 0 mm | 2.68 m/s, 167° | 244 W/m² | - |
| 1788083617 | 25.56° C | 55% | 1008 hPa | 0 mm | 0.45 m/s, 16° | 232 W/m² | - |
| 1788083557 | 25.56° C | 54% | 1007.9 hPa | 0 mm | 3.13 m/s, 127° | 688 W/m² | - |
| 1788083497 | 25° C | 56% | 1007.9 hPa | 0 mm | 0.89 m/s, 278° | 223 W/m² | - |
| 1788083437 | 25° C | 56% | 1007.8 hPa | 0 mm | 0.45 m/s, 277° | 217 W/m² | - |
| 1788083377 | 25° C | 55% | 1008.1 hPa | 0 mm | 0.45 m/s, 269° | 317 W/m² | - |
* Rain latest hour (hover to see other rain measurements)
** Current wind speed in m/s (hover to see current wind gust speed)